createdAt,value
2018-07-31T00:00:18.430Z,0.00
2018-07-31T00:01:18.434Z,0.00
2018-07-31T00:02:18.408Z,0.00
2018-07-31T00:03:18.463Z,0.00
2018-07-31T00:04:18.429Z,0.00
2018-07-31T00:05:18.373Z,0.00
2018-07-31T00:06:18.364Z,0.00
2018-07-31T00:07:18.354Z,0.00
2018-07-31T00:08:18.341Z,0.00
2018-07-31T00:09:18.332Z,0.00
2018-07-31T00:10:18.335Z,0.00
2018-07-31T00:11:18.308Z,0.00
2018-07-31T00:12:18.297Z,0.00
2018-07-31T00:13:18.288Z,0.00
2018-07-31T00:14:18.276Z,0.00
2018-07-31T00:15:18.287Z,0.00
2018-07-31T00:16:18.262Z,0.00
2018-07-31T00:17:18.244Z,0.00
2018-07-31T00:18:18.233Z,0.00
2018-07-31T00:19:18.239Z,0.00
2018-07-31T00:20:18.211Z,0.00
2018-07-31T00:21:18.202Z,0.00
2018-07-31T00:22:18.194Z,0.00
2018-07-31T00:23:18.182Z,0.00
2018-07-31T00:24:18.195Z,0.00
2018-07-31T00:25:18.158Z,0.00
2018-07-31T00:26:18.147Z,0.00
2018-07-31T00:27:18.141Z,0.00
2018-07-31T00:28:18.132Z,0.00
2018-07-31T00:29:18.118Z,0.00
2018-07-31T00:30:18.124Z,0.00
2018-07-31T00:31:18.112Z,0.00
2018-07-31T00:32:18.082Z,0.00
2018-07-31T00:33:18.070Z,0.00
2018-07-31T00:34:18.069Z,0.00
2018-07-31T00:35:18.052Z,0.00
2018-07-31T00:36:18.059Z,0.00
2018-07-31T00:37:18.029Z,0.00
2018-07-31T00:38:18.018Z,0.00
2018-07-31T00:39:18.009Z,0.00
2018-07-31T00:40:18.015Z,0.00
2018-07-31T00:41:17.984Z,0.00
2018-07-31T00:42:17.974Z,0.00
2018-07-31T00:43:17.980Z,0.00
2018-07-31T00:44:17.955Z,0.00
2018-07-31T00:45:17.960Z,0.00
2018-07-31T00:46:17.931Z,0.00
2018-07-31T00:47:17.924Z,0.00
2018-07-31T00:48:17.911Z,0.00
2018-07-31T00:49:17.898Z,0.00
2018-07-31T00:50:17.909Z,0.00
2018-07-31T00:51:17.875Z,0.00
2018-07-31T00:52:17.868Z,0.00
2018-07-31T00:53:17.872Z,0.00
2018-07-31T00:54:17.844Z,0.00
2018-07-31T00:55:17.834Z,0.00
2018-07-31T00:56:17.840Z,0.00
2018-07-31T00:57:17.814Z,0.00
2018-07-31T00:58:17.802Z,0.00
2018-07-31T00:59:17.793Z,0.00
2018-07-31T01:00:17.783Z,0.00
2018-07-31T01:01:17.769Z,0.00
2018-07-31T01:02:17.779Z,0.00
2018-07-31T01:03:17.749Z,0.00
2018-07-31T01:04:17.770Z,0.00
2018-07-31T01:05:17.767Z,0.00
2018-07-31T01:06:17.719Z,0.00
2018-07-31T01:07:17.709Z,0.00
2018-07-31T01:08:17.693Z,0.00
2018-07-31T01:09:17.728Z,0.00
2018-07-31T01:10:17.672Z,0.00
2018-07-31T01:11:17.662Z,0.00
2018-07-31T01:12:17.652Z,0.00
2018-07-31T01:13:17.641Z,0.00
2018-07-31T01:14:17.626Z,0.00
2018-07-31T01:15:17.636Z,0.00
2018-07-31T01:16:17.635Z,0.00
2018-07-31T01:17:17.596Z,0.00
2018-07-31T01:18:17.586Z,0.00
2018-07-31T01:19:17.595Z,0.00
2018-07-31T01:20:17.566Z,0.00
2018-07-31T01:21:17.552Z,0.00
2018-07-31T01:22:17.542Z,0.00
2018-07-31T01:23:17.529Z,0.00
2018-07-31T01:24:17.525Z,0.00
2018-07-31T01:25:17.526Z,0.00
2018-07-31T01:26:17.503Z,0.00
2018-07-31T01:27:17.487Z,0.00
2018-07-31T01:28:17.478Z,0.00
2018-07-31T01:29:17.465Z,0.00
2018-07-31T01:30:17.468Z,0.00
2018-07-31T01:31:17.445Z,0.00
2018-07-31T01:32:17.432Z,0.00
2018-07-31T01:33:17.424Z,0.00
2018-07-31T01:34:17.409Z,0.00
2018-07-31T01:35:17.416Z,0.00
2018-07-31T01:36:17.404Z,0.00
2018-07-31T01:37:17.382Z,0.00
2018-07-31T01:38:17.367Z,0.00
2018-07-31T01:39:17.356Z,0.00
2018-07-31T01:40:17.362Z,0.00
2018-07-31T01:41:17.331Z,0.00
2018-07-31T01:42:17.320Z,0.00
2018-07-31T01:43:17.311Z,0.00
2018-07-31T01:44:17.301Z,0.00
2018-07-31T01:45:17.304Z,0.00
2018-07-31T01:46:17.281Z,0.00
2018-07-31T01:47:17.269Z,0.00
2018-07-31T01:48:17.255Z,0.00
2018-07-31T01:49:17.263Z,0.00
2018-07-31T01:50:17.233Z,0.00
2018-07-31T01:51:17.226Z,0.00
2018-07-31T01:52:17.230Z,0.00
2018-07-31T01:53:17.207Z,0.00
2018-07-31T01:54:17.195Z,0.00
2018-07-31T01:55:17.185Z,0.00
2018-07-31T01:56:17.169Z,0.00
2018-07-31T01:57:17.181Z,0.00
2018-07-31T01:58:17.151Z,0.00
2018-07-31T01:59:17.135Z,0.00
2018-07-31T02:00:17.126Z,0.00
2018-07-31T02:01:17.125Z,0.00
2018-07-31T02:02:17.103Z,0.00
2018-07-31T02:03:17.108Z,0.00
2018-07-31T02:04:17.085Z,0.00
2018-07-31T02:05:17.069Z,0.00
2018-07-31T02:06:17.088Z,0.00
2018-07-31T02:07:17.047Z,0.00
2018-07-31T02:08:17.076Z,0.00
2018-07-31T02:09:17.026Z,0.00
2018-07-31T02:10:17.015Z,0.00
2018-07-31T02:11:17.005Z,0.00
2018-07-31T02:12:16.995Z,0.00
2018-07-31T02:13:16.983Z,0.00
2018-07-31T02:14:16.988Z,0.00
2018-07-31T02:15:16.961Z,0.00
2018-07-31T02:16:16.956Z,0.00
2018-07-31T02:17:16.985Z,0.00
2018-07-31T02:18:16.948Z,0.00
2018-07-31T02:19:16.958Z,0.00
2018-07-31T02:20:16.910Z,0.00
2018-07-31T02:21:16.895Z,0.00
2018-07-31T02:22:16.883Z,0.00
2018-07-31T02:23:16.884Z,0.00
2018-07-31T02:24:16.865Z,0.00
2018-07-31T02:25:16.868Z,0.00
2018-07-31T02:26:16.840Z,0.00
2018-07-31T02:27:16.829Z,0.00
2018-07-31T02:28:16.959Z,0.00
2018-07-31T02:29:16.820Z,0.00
2018-07-31T02:30:16.817Z,0.00
2018-07-31T02:31:16.785Z,0.00
2018-07-31T02:32:16.771Z,0.00
2018-07-31T02:33:16.762Z,0.00
2018-07-31T02:34:16.768Z,0.00
2018-07-31T02:35:16.756Z,0.00
2018-07-31T02:36:16.728Z,0.00
2018-07-31T02:37:16.724Z,0.00
2018-07-31T02:38:16.707Z,0.00
2018-07-31T02:39:16.693Z,0.00
2018-07-31T02:40:16.706Z,0.00
2018-07-31T02:41:16.673Z,0.00
2018-07-31T02:42:16.662Z,0.00
2018-07-31T02:43:16.657Z,0.00
2018-07-31T02:44:16.662Z,0.00
2018-07-31T02:45:16.634Z,0.00
2018-07-31T02:46:16.648Z,0.00
2018-07-31T02:47:16.605Z,0.00
2018-07-31T02:48:16.593Z,0.00
2018-07-31T02:49:16.581Z,0.00
2018-07-31T02:50:16.572Z,0.00
2018-07-31T02:51:16.580Z,0.00
2018-07-31T02:52:16.553Z,0.00
2018-07-31T02:53:16.543Z,0.00
2018-07-31T02:54:16.530Z,0.00
2018-07-31T02:55:16.519Z,0.00
2018-07-31T02:56:16.505Z,0.00
2018-07-31T02:57:16.511Z,0.00
2018-07-31T02:58:16.483Z,0.00
2018-07-31T02:59:16.467Z,0.00
2018-07-31T03:00:16.463Z,0.00
2018-07-31T03:01:16.479Z,0.00
2018-07-31T03:02:16.443Z,0.00
2018-07-31T03:03:16.425Z,0.00
2018-07-31T03:04:16.422Z,0.00
2018-07-31T03:05:16.406Z,0.00
2018-07-31T03:06:16.395Z,0.00
2018-07-31T03:07:16.406Z,0.00
2018-07-31T03:08:16.427Z,0.00
2018-07-31T03:09:16.357Z,0.00
2018-07-31T03:10:16.353Z,0.00
2018-07-31T03:11:16.342Z,0.00
2018-07-31T03:12:16.324Z,0.00
2018-07-31T03:13:16.328Z,0.00
2018-07-31T03:14:16.303Z,0.00
2018-07-31T03:15:16.296Z,0.00
2018-07-31T03:16:16.286Z,0.00
2018-07-31T03:17:16.273Z,0.00
2018-07-31T03:18:16.280Z,0.00
2018-07-31T03:19:16.251Z,0.00
2018-07-31T03:20:16.236Z,0.00
2018-07-31T03:21:16.234Z,0.00
2018-07-31T03:22:16.219Z,0.00
2018-07-31T03:23:16.204Z,0.00
2018-07-31T03:24:16.224Z,0.00
2018-07-31T03:25:16.185Z,0.00
2018-07-31T03:26:16.202Z,0.00
2018-07-31T03:27:16.161Z,0.00
2018-07-31T03:28:16.190Z,0.00
2018-07-31T03:29:16.154Z,0.00
2018-07-31T03:30:16.128Z,0.00
2018-07-31T03:31:16.116Z,0.00
2018-07-31T03:32:16.108Z,0.00
2018-07-31T03:33:16.094Z,0.00
2018-07-31T03:34:16.102Z,0.00
2018-07-31T03:35:16.073Z,0.00
2018-07-31T03:36:16.061Z,0.00
2018-07-31T03:37:16.051Z,0.00
2018-07-31T03:38:16.039Z,0.00
2018-07-31T03:39:16.054Z,5.62
2018-07-31T03:40:16.017Z,5.62
2018-07-31T03:41:16.007Z,5.62
2018-07-31T03:42:15.996Z,5.62
2018-07-31T03:43:15.982Z,5.62
2018-07-31T03:44:15.970Z,5.62
2018-07-31T03:45:15.978Z,5.62
2018-07-31T03:46:15.949Z,5.62
2018-07-31T03:47:15.937Z,11.25
2018-07-31T03:48:15.928Z,11.25
2018-07-31T03:49:15.958Z,11.25
2018-07-31T03:50:15.909Z,11.25
2018-07-31T03:51:15.897Z,11.25
2018-07-31T03:52:15.884Z,11.25
2018-07-31T03:53:15.874Z,11.25
2018-07-31T03:54:15.862Z,16.88
2018-07-31T03:55:15.865Z,16.88
2018-07-31T03:56:15.885Z,16.88
2018-07-31T03:57:15.827Z,16.88
2018-07-31T03:58:15.832Z,22.50
2018-07-31T03:59:15.807Z,22.50
2018-07-31T04:00:15.810Z,22.50
2018-07-31T04:01:15.785Z,22.50
2018-07-31T04:02:15.772Z,28.12
2018-07-31T04:03:15.762Z,28.12
2018-07-31T04:04:15.768Z,28.12
2018-07-31T04:05:15.741Z,33.75
2018-07-31T04:06:15.748Z,33.75
2018-07-31T04:07:15.715Z,33.75
2018-07-31T04:08:15.703Z,39.38
2018-07-31T04:09:15.695Z,39.38
2018-07-31T04:10:15.684Z,45.00
2018-07-31T04:11:15.686Z,45.00
2018-07-31T04:12:15.663Z,50.62
2018-07-31T04:13:15.651Z,50.62
2018-07-31T04:14:15.639Z,50.62
2018-07-31T04:15:15.626Z,56.25
2018-07-31T04:16:15.632Z,56.25
2018-07-31T04:17:15.722Z,61.88
2018-07-31T04:18:15.593Z,61.88
2018-07-31T04:19:15.602Z,67.50
2018-07-31T04:20:15.593Z,67.50
2018-07-31T04:21:15.563Z,73.12
2018-07-31T04:22:15.549Z,73.12
2018-07-31T04:23:15.540Z,78.75
2018-07-31T04:24:15.530Z,78.75
2018-07-31T04:25:15.519Z,84.38
2018-07-31T04:26:15.525Z,84.38
2018-07-31T04:27:15.511Z,84.38
2018-07-31T04:28:15.526Z,84.38
2018-07-31T04:29:15.476Z,84.38
2018-07-31T04:30:15.529Z,90.00
2018-07-31T04:31:15.477Z,95.62
2018-07-31T04:32:15.439Z,95.62
2018-07-31T04:33:15.431Z,95.62
2018-07-31T04:34:15.437Z,101.25
2018-07-31T04:35:15.410Z,101.25
2018-07-31T04:36:15.512Z,106.88
2018-07-31T04:37:15.393Z,112.50
2018-07-31T04:38:15.405Z,118.12
2018-07-31T04:39:15.367Z,123.75
2018-07-31T04:40:15.356Z,123.75
2018-07-31T04:41:15.390Z,129.38
2018-07-31T04:42:15.344Z,129.38
2018-07-31T04:43:15.323Z,135.00
2018-07-31T04:44:15.326Z,129.38
2018-07-31T04:45:15.301Z,129.38
2018-07-31T04:46:15.287Z,135.00
2018-07-31T04:47:15.278Z,151.88
2018-07-31T04:48:15.268Z,151.88
2018-07-31T04:49:15.276Z,157.50
2018-07-31T04:50:15.249Z,157.50
2018-07-31T04:51:15.235Z,163.12
2018-07-31T04:52:15.224Z,163.12
2018-07-31T04:53:15.211Z,163.12
2018-07-31T04:54:15.227Z,168.75
2018-07-31T04:55:15.192Z,168.75
2018-07-31T04:56:15.181Z,174.38
2018-07-31T04:57:15.180Z,180.00
2018-07-31T04:58:15.163Z,180.00
2018-07-31T04:59:15.171Z,185.62
2018-07-31T05:00:15.144Z,191.25
2018-07-31T05:01:15.125Z,196.88
2018-07-31T05:02:15.121Z,202.50
2018-07-31T05:03:15.109Z,208.12
2018-07-31T05:04:15.092Z,213.75
2018-07-31T05:05:15.128Z,213.75
2018-07-31T05:06:15.071Z,219.38
2018-07-31T05:07:15.066Z,225.00
2018-07-31T05:08:15.054Z,230.62
2018-07-31T05:09:15.041Z,236.25
2018-07-31T05:10:15.030Z,241.88
2018-07-31T05:11:15.038Z,241.88
2018-07-31T05:12:15.009Z,247.50
2018-07-31T05:13:14.997Z,230.62
2018-07-31T05:14:14.990Z,258.75
2018-07-31T05:15:14.997Z,270.00
2018-07-31T05:16:14.965Z,270.00
2018-07-31T05:17:14.951Z,275.62
2018-07-31T05:18:14.992Z,281.25
2018-07-31T05:19:14.929Z,286.88
2018-07-31T05:20:14.923Z,298.12
2018-07-31T05:21:14.935Z,309.38
2018-07-31T05:22:14.896Z,309.38
2018-07-31T05:23:14.886Z,320.62
2018-07-31T05:24:14.878Z,326.25
2018-07-31T05:25:14.886Z,337.50
2018-07-31T05:26:14.855Z,348.75
2018-07-31T05:27:14.876Z,354.38
2018-07-31T05:28:14.834Z,354.38
2018-07-31T05:29:14.822Z,360.00
2018-07-31T05:30:14.816Z,360.00
2018-07-31T05:31:14.815Z,365.62
2018-07-31T05:32:14.787Z,371.25
2018-07-31T05:33:14.780Z,376.88
2018-07-31T05:34:14.771Z,376.88
2018-07-31T05:35:14.759Z,382.50
2018-07-31T05:36:14.762Z,382.50
2018-07-31T05:37:14.735Z,382.50
2018-07-31T05:38:14.731Z,393.75
2018-07-31T05:39:14.718Z,388.12
2018-07-31T05:40:14.705Z,388.12
2018-07-31T05:41:14.709Z,393.75
2018-07-31T05:42:14.681Z,399.38
2018-07-31T05:43:14.672Z,405.00
2018-07-31T05:44:14.667Z,410.62
2018-07-31T05:45:14.648Z,410.62
2018-07-31T05:46:14.658Z,405.00
2018-07-31T05:47:14.630Z,405.00
2018-07-31T05:48:14.619Z,410.62
2018-07-31T05:49:14.609Z,416.25
2018-07-31T05:50:14.600Z,427.50
2018-07-31T05:51:14.601Z,433.12
2018-07-31T05:52:14.576Z,444.38
2018-07-31T05:53:14.589Z,450.00
2018-07-31T05:54:14.556Z,427.50
2018-07-31T05:55:14.547Z,438.75
2018-07-31T05:56:14.535Z,461.25
2018-07-31T05:57:14.557Z,461.25
2018-07-31T05:58:14.513Z,461.25
2018-07-31T05:59:14.502Z,478.12
2018-07-31T06:00:14.491Z,483.75
2018-07-31T06:01:14.480Z,483.75
2018-07-31T06:02:14.488Z,472.50
2018-07-31T06:03:14.477Z,472.50
2018-07-31T06:04:14.447Z,466.88
2018-07-31T06:05:14.440Z,478.12
2018-07-31T06:06:14.432Z,495.00
2018-07-31T06:07:14.433Z,495.00
2018-07-31T06:08:14.447Z,495.00
2018-07-31T06:09:14.402Z,382.50
2018-07-31T06:10:14.388Z,472.50
2018-07-31T06:11:14.383Z,500.62
2018-07-31T06:12:14.364Z,506.25
2018-07-31T06:13:14.349Z,455.62
2018-07-31T06:14:14.352Z,365.62
2018-07-31T06:15:14.329Z,253.12
2018-07-31T06:16:14.319Z,298.12
2018-07-31T06:17:14.306Z,286.88
2018-07-31T06:18:14.294Z,309.38
2018-07-31T06:19:14.296Z,309.38
2018-07-31T06:20:14.271Z,275.62
2018-07-31T06:21:14.264Z,286.88
2018-07-31T06:22:14.248Z,371.25
2018-07-31T06:23:14.238Z,450.00
2018-07-31T06:24:14.242Z,365.62
2018-07-31T06:25:14.215Z,343.12
2018-07-31T06:26:14.204Z,348.75
2018-07-31T06:27:14.194Z,331.88
2018-07-31T06:28:14.183Z,410.62
2018-07-31T06:29:14.189Z,281.25
2018-07-31T06:30:14.161Z,365.62
2018-07-31T06:31:14.151Z,517.50
2018-07-31T06:32:14.138Z,416.25
2018-07-31T06:33:14.128Z,517.50
2018-07-31T06:34:14.133Z,551.25
2018-07-31T06:35:14.103Z,540.00
2018-07-31T06:36:14.114Z,540.00
2018-07-31T06:37:14.100Z,545.62
2018-07-31T06:38:14.072Z,556.88
2018-07-31T06:39:14.093Z,551.25
2018-07-31T06:40:14.051Z,545.62
2018-07-31T06:41:14.043Z,551.25
2018-07-31T06:42:14.051Z,545.62
2018-07-31T06:43:14.018Z,540.00
2018-07-31T06:44:14.012Z,528.75
2018-07-31T06:45:14.020Z,528.75
2018-07-31T06:46:13.985Z,528.75
2018-07-31T06:47:13.974Z,545.62
2018-07-31T06:48:13.981Z,551.25
2018-07-31T06:49:13.972Z,556.88
2018-07-31T06:50:13.942Z,556.88
2018-07-31T06:51:13.950Z,556.88
2018-07-31T06:52:13.923Z,568.12
2018-07-31T06:53:13.915Z,562.50
2018-07-31T06:54:13.915Z,579.38
2018-07-31T06:55:13.896Z,573.75
2018-07-31T06:56:13.881Z,573.75
2018-07-31T06:57:13.886Z,579.38
2018-07-31T06:58:13.880Z,579.38
2018-07-31T06:59:13.845Z,585.00
2018-07-31T07:00:13.834Z,585.00
2018-07-31T07:01:13.825Z,590.62
2018-07-31T07:02:13.889Z,590.62
2018-07-31T07:03:13.812Z,596.25
2018-07-31T07:04:13.809Z,601.88
2018-07-31T07:05:13.782Z,607.50
2018-07-31T07:06:13.772Z,618.75
2018-07-31T07:07:13.767Z,646.88
2018-07-31T07:08:13.774Z,984.38
2018-07-31T07:09:13.793Z,1783.12
2018-07-31T07:10:13.731Z,1569.38
2018-07-31T07:11:13.719Z,956.25
2018-07-31T07:12:13.706Z,669.38
2018-07-31T07:13:13.720Z,675.00
2018-07-31T07:14:13.706Z,669.38
2018-07-31T07:15:13.676Z,686.25
2018-07-31T07:16:13.666Z,697.50
2018-07-31T07:17:13.664Z,714.38
2018-07-31T07:18:13.687Z,736.88
2018-07-31T07:19:13.634Z,759.38
2018-07-31T07:20:13.625Z,781.88
2018-07-31T07:21:13.613Z,804.38
2018-07-31T07:22:13.603Z,826.88
2018-07-31T07:23:13.593Z,849.38
2018-07-31T07:24:13.603Z,871.88
2018-07-31T07:25:13.576Z,900.00
2018-07-31T07:26:13.560Z,922.50
2018-07-31T07:27:13.548Z,933.75
2018-07-31T07:28:13.537Z,950.62
2018-07-31T07:29:13.526Z,973.12
2018-07-31T07:30:13.531Z,945.00
2018-07-31T07:31:13.506Z,978.75
2018-07-31T07:32:13.500Z,1012.50
2018-07-31T07:33:13.483Z,1096.88
2018-07-31T07:34:13.492Z,1113.75
2018-07-31T07:35:13.462Z,1164.38
2018-07-31T07:36:13.455Z,1175.62
2018-07-31T07:37:13.444Z,961.88
2018-07-31T07:38:13.432Z,1113.75
2018-07-31T07:39:13.438Z,1080.00
2018-07-31T07:40:13.481Z,1119.38
2018-07-31T07:41:13.419Z,1164.38
2018-07-31T07:42:13.389Z,1198.12
2018-07-31T07:43:13.391Z,1119.38
2018-07-31T07:44:13.391Z,1040.62
2018-07-31T07:45:13.359Z,1102.50
2018-07-31T07:46:13.367Z,1181.25
2018-07-31T07:47:13.341Z,1164.38
2018-07-31T07:48:13.333Z,1158.75
2018-07-31T07:49:13.318Z,1158.75
2018-07-31T07:50:13.323Z,1023.75
2018-07-31T07:51:13.298Z,990.00
2018-07-31T07:52:13.327Z,933.75
2018-07-31T07:53:13.273Z,933.75
2018-07-31T07:54:13.494Z,1018.12
2018-07-31T07:55:13.257Z,1141.88
2018-07-31T07:56:13.280Z,1125.00
2018-07-31T07:57:13.252Z,1141.88
2018-07-31T07:58:13.225Z,1074.38
2018-07-31T07:59:13.232Z,1018.12
2018-07-31T08:00:13.201Z,1046.25
2018-07-31T08:01:13.191Z,956.25
2018-07-31T08:02:13.224Z,866.25
2018-07-31T08:03:13.174Z,703.12
2018-07-31T08:04:13.207Z,731.25
2018-07-31T08:05:13.151Z,736.88
2018-07-31T08:06:13.144Z,860.62
2018-07-31T08:07:13.133Z,787.50
2018-07-31T08:08:13.135Z,630.00
2018-07-31T08:09:13.113Z,675.00
2018-07-31T08:10:13.113Z,686.25
2018-07-31T08:11:13.092Z,781.88
2018-07-31T08:12:13.078Z,838.12
2018-07-31T08:13:13.081Z,832.50
2018-07-31T08:14:13.061Z,815.62
2018-07-31T08:15:13.051Z,849.38
2018-07-31T08:16:13.035Z,855.00
2018-07-31T08:17:13.026Z,787.50
2018-07-31T08:18:13.032Z,826.88
2018-07-31T08:19:13.003Z,787.50
2018-07-31T08:20:13.024Z,770.62
2018-07-31T08:21:12.986Z,731.25
2018-07-31T08:22:12.973Z,815.62
2018-07-31T08:23:12.998Z,832.50
2018-07-31T08:24:12.954Z,793.12
2018-07-31T08:25:12.942Z,1440.00
2018-07-31T08:26:12.934Z,1839.38
2018-07-31T08:27:12.919Z,1721.25
2018-07-31T08:28:12.910Z,1811.25
2018-07-31T08:29:12.943Z,2379.38
2018-07-31T08:30:12.887Z,2261.25
2018-07-31T08:31:12.876Z,2469.38
2018-07-31T08:32:12.872Z,3217.50
2018-07-31T08:33:12.857Z,2891.25
2018-07-31T08:34:12.849Z,1395.00
2018-07-31T08:35:12.858Z,1057.50
2018-07-31T08:36:12.830Z,973.12
2018-07-31T08:37:12.815Z,1260.00
2018-07-31T08:38:12.807Z,2131.88
2018-07-31T08:39:12.793Z,2227.50
2018-07-31T08:40:12.804Z,1580.62
2018-07-31T08:41:12.800Z,1248.75
2018-07-31T08:42:12.762Z,826.88
2018-07-31T08:43:12.755Z,1361.25
2018-07-31T08:44:12.743Z,1254.38
2018-07-31T08:45:12.747Z,798.75
2018-07-31T08:46:12.727Z,1665.00
2018-07-31T08:47:12.741Z,1451.25
2018-07-31T08:48:12.702Z,1681.88
2018-07-31T08:49:12.692Z,1895.62
2018-07-31T08:50:12.703Z,2430.00
2018-07-31T08:51:12.675Z,2227.50
2018-07-31T08:52:12.665Z,2356.88
2018-07-31T08:53:12.667Z,3870.00
2018-07-31T08:54:12.644Z,4601.25
2018-07-31T08:55:12.638Z,4736.25
2018-07-31T08:56:12.637Z,4916.25
2018-07-31T08:57:12.614Z,3588.75
2018-07-31T08:58:12.628Z,1918.12
2018-07-31T08:59:12.591Z,4297.50
2018-07-31T09:00:12.587Z,4888.12
2018-07-31T09:01:12.572Z,4989.38
2018-07-31T09:02:12.559Z,4871.25
2018-07-31T09:03:13.382Z,3375.00
2018-07-31T09:04:12.559Z,2818.12
2018-07-31T09:05:12.537Z,3183.75
2018-07-31T09:06:12.527Z,1603.12
2018-07-31T09:07:12.510Z,933.75
2018-07-31T09:08:12.583Z,1378.12
2018-07-31T09:09:12.495Z,1822.50
2018-07-31T09:10:12.486Z,1811.25
2018-07-31T09:11:12.493Z,1417.50
2018-07-31T09:12:12.469Z,1794.38
2018-07-31T09:13:12.456Z,1693.12
2018-07-31T09:14:12.443Z,2356.88
2018-07-31T09:15:12.437Z,1563.75
2018-07-31T09:16:12.441Z,1400.62
2018-07-31T09:17:12.458Z,1029.38
2018-07-31T09:18:12.409Z,1119.38
2018-07-31T09:19:12.400Z,1389.38
2018-07-31T09:20:12.387Z,1327.50
2018-07-31T09:21:12.379Z,1333.12
2018-07-31T09:22:12.378Z,1935.00
2018-07-31T09:23:12.373Z,1141.88
2018-07-31T09:24:12.349Z,1164.38
2018-07-31T09:25:12.338Z,1141.88
2018-07-31T09:26:12.326Z,1186.88
2018-07-31T09:27:12.333Z,1209.38
2018-07-31T09:28:12.305Z,1170.00
2018-07-31T09:29:12.295Z,2379.38
2018-07-31T09:30:12.287Z,3273.75
2018-07-31T09:31:12.279Z,5231.25
2018-07-31T09:32:12.283Z,5028.75
2018-07-31T09:33:12.272Z,3605.62
2018-07-31T09:34:12.250Z,2615.62
2018-07-31T09:35:12.236Z,2171.25
2018-07-31T09:36:12.229Z,2970.00
2018-07-31T09:37:12.247Z,2480.62
2018-07-31T09:38:12.268Z,2109.38
2018-07-31T09:39:12.202Z,1501.88
2018-07-31T09:40:12.192Z,1805.62
2018-07-31T09:41:12.180Z,2829.38
2018-07-31T09:42:12.173Z,3178.12
2018-07-31T09:43:12.188Z,2581.88
2018-07-31T09:44:12.153Z,2525.62
2018-07-31T09:45:12.140Z,3065.62
2018-07-31T09:46:12.130Z,2311.88
2018-07-31T09:47:12.124Z,1861.88
2018-07-31T09:48:12.117Z,2655.00
2018-07-31T09:49:12.141Z,1361.25
2018-07-31T09:50:12.100Z,2075.62
2018-07-31T09:51:12.085Z,3330.00
2018-07-31T09:52:12.074Z,2812.50
2018-07-31T09:53:12.063Z,2761.88
2018-07-31T09:54:12.109Z,2767.50
2018-07-31T09:55:12.044Z,3555.00
2018-07-31T09:56:12.040Z,2289.38
2018-07-31T09:57:12.147Z,1878.75
2018-07-31T09:58:12.017Z,2126.25
2018-07-31T09:59:12.025Z,3026.25
2018-07-31T10:00:12.025Z,2075.62
2018-07-31T10:01:11.992Z,1456.88
2018-07-31T10:02:11.978Z,1996.88
2018-07-31T10:03:11.971Z,3622.50
2018-07-31T10:04:11.973Z,6080.62
2018-07-31T10:05:11.980Z,6153.75
2018-07-31T10:06:11.940Z,5748.75
2018-07-31T10:07:11.934Z,5962.50
2018-07-31T10:08:11.921Z,5298.75
2018-07-31T10:09:11.931Z,2289.38
2018-07-31T10:10:11.901Z,1861.88
2018-07-31T10:11:11.893Z,1901.25
2018-07-31T10:12:11.891Z,1968.75
2018-07-31T10:13:11.878Z,5720.62
2018-07-31T10:14:11.884Z,4140.00
2018-07-31T10:15:11.856Z,1901.25
2018-07-31T10:16:11.849Z,4415.62
2018-07-31T10:17:11.842Z,4393.12
2018-07-31T10:18:11.960Z,5231.25
2018-07-31T10:19:12.010Z,5675.62
2018-07-31T10:20:11.812Z,1327.50
2018-07-31T10:21:11.804Z,3465.00
2018-07-31T10:22:11.795Z,5478.75
2018-07-31T10:23:11.787Z,5765.62
2018-07-31T10:24:11.800Z,6086.25
2018-07-31T10:25:11.805Z,1591.88
2018-07-31T10:26:11.761Z,3611.25
2018-07-31T10:27:11.752Z,1395.00
2018-07-31T10:28:11.739Z,1895.62
2018-07-31T10:29:11.731Z,1569.38
2018-07-31T10:30:11.724Z,1614.38
2018-07-31T10:31:11.734Z,1721.25
2018-07-31T10:32:11.702Z,2570.62
2018-07-31T10:33:11.697Z,2975.62
2018-07-31T10:34:11.693Z,3003.75
2018-07-31T10:35:11.677Z,1884.38
2018-07-31T10:36:11.681Z,1884.38
2018-07-31T10:37:11.658Z,1811.25
2018-07-31T10:38:11.650Z,1906.88
2018-07-31T10:39:11.642Z,2390.62
2018-07-31T10:40:11.629Z,2401.88
2018-07-31T10:41:11.636Z,4241.25
2018-07-31T10:42:11.654Z,2778.75
2018-07-31T10:43:11.603Z,3864.38
2018-07-31T10:44:11.596Z,2390.62
2018-07-31T10:45:11.618Z,3026.25
2018-07-31T10:46:11.575Z,2250.00
2018-07-31T10:47:11.578Z,1158.75
2018-07-31T10:48:11.584Z,1186.88
2018-07-31T10:49:11.550Z,2565.00
2018-07-31T10:50:11.542Z,1957.50
2018-07-31T10:51:11.604Z,1513.12
2018-07-31T10:52:11.517Z,1788.75
2018-07-31T10:53:11.508Z,2092.50
2018-07-31T10:54:11.514Z,3785.62
2018-07-31T10:55:11.492Z,6142.50
2018-07-31T10:56:11.483Z,5220.00
2018-07-31T10:57:11.493Z,2081.25
2018-07-31T10:58:11.574Z,2812.50
2018-07-31T10:59:11.482Z,3515.62
2018-07-31T11:00:11.491Z,3341.25
2018-07-31T11:01:11.439Z,2300.62
2018-07-31T11:02:11.428Z,2295.00
2018-07-31T11:03:11.537Z,3656.25
2018-07-31T11:04:11.429Z,3757.50
2018-07-31T11:05:11.419Z,2520.00
2018-07-31T11:06:11.420Z,2210.62
2018-07-31T11:07:11.380Z,3335.62
2018-07-31T11:08:11.375Z,4888.12
2018-07-31T11:09:11.892Z,4905.00
2018-07-31T11:10:11.355Z,4471.88
2018-07-31T11:11:11.360Z,4066.88
2018-07-31T11:12:11.367Z,3459.38
2018-07-31T11:13:11.347Z,3937.50
2018-07-31T11:14:11.331Z,3853.12
2018-07-31T11:15:11.319Z,5557.50
2018-07-31T11:16:11.306Z,5743.12
2018-07-31T11:17:11.299Z,5945.62
2018-07-31T11:18:11.307Z,5996.25
2018-07-31T11:19:11.285Z,6013.12
2018-07-31T11:20:11.276Z,5866.88
2018-07-31T11:21:11.275Z,5973.75
2018-07-31T11:22:11.259Z,5225.62
2018-07-31T11:23:11.253Z,5259.38
2018-07-31T11:24:11.266Z,4522.50
2018-07-31T11:25:11.237Z,4522.50
2018-07-31T11:26:11.231Z,4297.50
2018-07-31T11:27:11.220Z,3661.88
2018-07-31T11:28:11.217Z,4561.88
2018-07-31T11:29:11.219Z,5630.62
2018-07-31T11:30:11.201Z,5540.62
2018-07-31T11:31:11.194Z,5450.62
2018-07-31T11:32:11.200Z,5405.62
2018-07-31T11:33:11.271Z,5495.62
2018-07-31T11:34:11.164Z,5557.50
2018-07-31T11:35:11.159Z,5585.62
2018-07-31T11:36:11.173Z,5670.00
2018-07-31T11:37:11.144Z,5512.50
2018-07-31T11:38:11.143Z,5540.62
2018-07-31T11:39:11.132Z,5563.12
2018-07-31T11:40:11.119Z,5585.62
2018-07-31T11:41:11.111Z,5456.25
2018-07-31T11:42:11.126Z,5304.38
2018-07-31T11:43:11.101Z,5630.62
2018-07-31T11:44:11.095Z,5670.00
2018-07-31T11:45:11.088Z,5580.00
2018-07-31T11:46:11.082Z,5636.25
2018-07-31T11:47:11.109Z,5793.75
2018-07-31T11:48:11.067Z,5630.62
2018-07-31T11:49:11.059Z,5625.00
2018-07-31T11:50:11.071Z,5591.25
2018-07-31T11:51:11.044Z,5686.88
2018-07-31T11:52:11.036Z,5647.50
2018-07-31T11:53:11.044Z,5647.50
2018-07-31T11:54:11.019Z,5760.00
2018-07-31T11:55:11.019Z,5793.75
2018-07-31T11:56:11.006Z,5692.50
2018-07-31T11:57:11.018Z,5585.62
2018-07-31T11:58:10.994Z,5535.00
2018-07-31T11:59:11.011Z,5416.88
2018-07-31T12:00:10.981Z,5568.75
2018-07-31T12:01:10.986Z,5529.38
2018-07-31T12:02:10.968Z,5450.62
2018-07-31T12:03:10.963Z,5411.25
2018-07-31T12:04:11.033Z,5647.50
2018-07-31T12:05:10.949Z,5760.00
2018-07-31T12:06:10.937Z,5703.75
2018-07-31T12:07:10.927Z,5698.12
2018-07-31T12:08:10.921Z,5641.88
2018-07-31T12:09:10.914Z,4612.50
2018-07-31T12:10:10.926Z,4449.38
2018-07-31T12:11:10.906Z,5630.62
2018-07-31T12:12:10.903Z,5540.62
2018-07-31T12:13:10.904Z,5208.75
2018-07-31T12:14:10.883Z,5208.75
2018-07-31T12:15:10.889Z,5152.50
2018-07-31T12:16:10.862Z,4854.38
2018-07-31T12:17:10.857Z,5101.88
2018-07-31T12:18:10.875Z,1704.38
2018-07-31T12:19:10.888Z,5782.50
2018-07-31T12:20:10.838Z,5872.50
2018-07-31T12:21:10.826Z,4905.00
2018-07-31T12:22:10.823Z,5518.12
2018-07-31T12:23:10.814Z,5428.12
2018-07-31T12:24:10.817Z,5445.00
2018-07-31T12:25:10.796Z,4426.88
2018-07-31T12:26:10.791Z,3751.88
2018-07-31T12:27:10.780Z,5231.25
2018-07-31T12:28:10.776Z,5349.38
2018-07-31T12:29:10.789Z,4016.25
2018-07-31T12:30:10.759Z,5298.75
2018-07-31T12:31:10.758Z,5383.12
2018-07-31T12:32:10.744Z,5338.12
2018-07-31T12:33:10.844Z,5214.38
2018-07-31T12:34:10.755Z,5191.88
2018-07-31T12:35:10.723Z,5315.62